sensor_id;sensor_type;location;lat;lon;timestamp;P1;P2;P0
14880;PMS7003;7533;51.278;12.588;2023-05-15T00:01:02;8.00;7.00;5.00
14880;PMS7003;7533;51.278;12.588;2023-05-15T00:06:04;8.75;8.75;4.00
14880;PMS7003;7533;51.278;12.588;2023-05-15T00:11:09;12.75;9.50;5.25
14880;PMS7003;7533;51.278;12.588;2023-05-15T00:16:12;8.50;8.25;3.75
14880;PMS7003;7533;51.278;12.588;2023-05-15T00:21:15;12.00;9.75;5.00
14880;PMS7003;7533;51.278;12.588;2023-05-15T00:26:21;8.75;7.75;4.00
14880;PMS7003;7533;51.278;12.588;2023-05-15T00:31:25;8.75;8.25;5.00
14880;PMS7003;7533;51.278;12.588;2023-05-15T00:36:28;9.00;8.00;4.00
14880;PMS7003;7533;51.278;12.588;2023-05-15T00:41:32;8.50;7.00;4.00
14880;PMS7003;7533;51.278;12.588;2023-05-15T00:46:38;9.25;9.00;4.00
14880;PMS7003;7533;51.278;12.588;2023-05-15T00:51:42;9.75;9.75;5.00
14880;PMS7003;7533;51.278;12.588;2023-05-15T00:56:46;7.00;6.50;4.00
14880;PMS7003;7533;51.278;12.588;2023-05-15T01:01:51;9.75;7.25;4.00
14880;PMS7003;7533;51.278;12.588;2023-05-15T01:06:53;9.75;7.00;3.25
14880;PMS7003;7533;51.278;12.588;2023-05-15T01:11:58;9.00;9.00;5.50
14880;PMS7003;7533;51.278;12.588;2023-05-15T01:17:03;6.25;6.00;3.00
14880;PMS7003;7533;51.278;12.588;2023-05-15T01:27:40;7.50;6.50;4.00
14880;PMS7003;7533;51.278;12.588;2023-05-15T01:32:48;9.25;6.25;4.00
14880;PMS7003;7533;51.278;12.588;2023-05-15T01:37:58;6.75;5.25;3.00
14880;PMS7003;7533;51.278;12.588;2023-05-15T01:43:17;7.25;7.00;3.00
14880;PMS7003;7533;51.278;12.588;2023-05-15T01:48:23;8.00;7.50;4.00
14880;PMS7003;7533;51.278;12.588;2023-05-15T01:53:29;7.00;6.00;3.25
14880;PMS7003;7533;51.278;12.588;2023-05-15T01:58:35;8.00;7.00;4.00
14880;PMS7003;7533;51.278;12.588;2023-05-15T02:03:40;9.00;7.00;3.75
14880;PMS7003;7533;51.278;12.588;2023-05-15T02:08:45;8.75;8.00;3.50
14880;PMS7003;7533;51.278;12.588;2023-05-15T02:13:50;8.25;6.50;3.00
14880;PMS7003;7533;51.278;12.588;2023-05-15T02:18:56;9.00;8.00;4.00
14880;PMS7003;7533;51.278;12.588;2023-05-15T02:23:59;8.75;6.75;3.75
14880;PMS7003;7533;51.278;12.588;2023-05-15T02:29:09;7.75;7.25;4.00
14880;PMS7003;7533;51.278;12.588;2023-05-15T02:34:22;6.50;6.50;4.50
14880;PMS7003;7533;51.278;12.588;2023-05-15T02:39:29;10.00;9.00;4.75
14880;PMS7003;7533;51.278;12.588;2023-05-15T02:44:36;8.25;6.75;4.00
14880;PMS7003;7533;51.278;12.588;2023-05-15T02:49:40;8.75;8.00;4.00
14880;PMS7003;7533;51.278;12.588;2023-05-15T02:54:43;7.75;7.75;4.00
14880;PMS7003;7533;51.278;12.588;2023-05-15T02:59:47;11.50;6.00;3.25
14880;PMS7003;7533;51.278;12.588;2023-05-15T03:04:50;10.00;6.00;4.00
14880;PMS7003;7533;51.278;12.588;2023-05-15T03:09:53;6.50;5.50;3.00
14880;PMS7003;7533;51.278;12.588;2023-05-15T03:14:57;6.50;6.50;3.50
14880;PMS7003;7533;51.278;12.588;2023-05-15T03:20:01;8.75;7.50;4.00
14880;PMS7003;7533;51.278;12.588;2023-05-15T03:25:05;6.50;5.75;3.00
14880;PMS7003;7533;51.278;12.588;2023-05-15T03:30:10;10.25;6.00;2.50
14880;PMS7003;7533;51.278;12.588;2023-05-15T03:35:13;7.50;6.00;3.00
14880;PMS7003;7533;51.278;12.588;2023-05-15T03:40:17;10.50;6.75;4.00
14880;PMS7003;7533;51.278;12.588;2023-05-15T03:45:21;8.00;7.00;3.75
14880;PMS7003;7533;51.278;12.588;2023-05-15T03:50:24;6.25;5.50;3.00
14880;PMS7003;7533;51.278;12.588;2023-05-15T03:55:27;7.50;6.25;4.00
14880;PMS7003;7533;51.278;12.588;2023-05-15T04:00:31;7.00;7.00;4.75
14880;PMS7003;7533;51.278;12.588;2023-05-15T04:05:34;6.00;6.00;3.00
14880;PMS7003;7533;51.278;12.588;2023-05-15T04:10:37;5.50;5.50;4.00
14880;PMS7003;7533;51.278;12.588;2023-05-15T04:15:41;6.50;4.50;3.00
14880;PMS7003;7533;51.278;12.588;2023-05-15T04:20:44;5.00;5.00;3.75
14880;PMS7003;7533;51.278;12.588;2023-05-15T04:25:47;5.75;5.50;3.50
14880;PMS7003;7533;51.278;12.588;2023-05-15T04:30:51;6.75;6.75;4.00
14880;PMS7003;7533;51.278;12.588;2023-05-15T04:35:54;5.75;5.75;3.25
14880;PMS7003;7533;51.278;12.588;2023-05-15T04:40:57;5.50;5.00;3.00
14880;PMS7003;7533;51.278;12.588;2023-05-15T04:46:01;7.00;5.75;4.00
14880;PMS7003;7533;51.278;12.588;2023-05-15T04:51:04;7.00;5.25;3.00
14880;PMS7003;7533;51.278;12.588;2023-05-15T04:56:07;5.50;5.50;3.00
14880;PMS7003;7533;51.278;12.588;2023-05-15T05:01:12;6.50;5.25;3.50
14880;PMS7003;7533;51.278;12.588;2023-05-15T05:06:15;6.75;6.75;3.25
14880;PMS7003;7533;51.278;12.588;2023-05-15T05:11:18;6.00;6.00;3.75
14880;PMS7003;7533;51.278;12.588;2023-05-15T05:16:23;6.25;5.75;4.00
14880;PMS7003;7533;51.278;12.588;2023-05-15T05:21:26;10.00;7.25;4.00
14880;PMS7003;7533;51.278;12.588;2023-05-15T05:26:28;5.25;3.50;2.75
14880;PMS7003;7533;51.278;12.588;2023-05-15T05:31:33;6.00;5.00;3.00
14880;PMS7003;7533;51.278;12.588;2023-05-15T05:36:35;5.50;4.25;2.25
14880;PMS7003;7533;51.278;12.588;2023-05-15T05:41:39;5.00;5.00;3.00
14880;PMS7003;7533;51.278;12.588;2023-05-15T05:46:43;6.00;5.25;3.25
14880;PMS7003;7533;51.278;12.588;2023-05-15T05:51:46;5.25;5.25;3.00
14880;PMS7003;7533;51.278;12.588;2023-05-15T05:56:49;6.50;5.75;2.75
14880;PMS7003;7533;51.278;12.588;2023-05-15T06:01:53;6.75;5.50;2.25
14880;PMS7003;7533;51.278;12.588;2023-05-15T06:06:56;6.75;5.00;3.00
14880;PMS7003;7533;51.278;12.588;2023-05-15T06:11:59;6.75;4.75;2.75
14880;PMS7003;7533;51.278;12.588;2023-05-15T06:17:06;8.50;5.00;2.25
14880;PMS7003;7533;51.278;12.588;2023-05-15T06:22:09;6.00;5.00;3.00
14880;PMS7003;7533;51.278;12.588;2023-05-15T06:27:12;5.00;4.00;2.75
14880;PMS7003;7533;51.278;12.588;2023-05-15T06:32:16;6.50;5.25;3.25
14880;PMS7003;7533;51.278;12.588;2023-05-15T06:37:19;7.00;5.50;3.00
14880;PMS7003;7533;51.278;12.588;2023-05-15T06:42:22;4.00;4.00;3.00
14880;PMS7003;7533;51.278;12.588;2023-05-15T06:47:26;6.50;5.25;3.00
14880;PMS7003;7533;51.278;12.588;2023-05-15T06:52:29;7.25;6.25;3.25
14880;PMS7003;7533;51.278;12.588;2023-05-15T06:57:32;20.00;19.50;12.50
14880;PMS7003;7533;51.278;12.588;2023-05-15T07:02:36;23.50;22.75;15.00
14880;PMS7003;7533;51.278;12.588;2023-05-15T07:07:39;22.40;21.60;13.80
14880;PMS7003;7533;51.278;12.588;2023-05-15T07:12:43;24.40;22.40;15.20
14880;PMS7003;7533;51.278;12.588;2023-05-15T07:17:47;30.20;26.40;15.40
14880;PMS7003;7533;51.278;12.588;2023-05-15T07:22:51;25.60;24.60;15.80
14880;PMS7003;7533;51.278;12.588;2023-05-15T07:27:57;26.40;21.80;15.20
14880;PMS7003;7533;51.278;12.588;2023-05-15T07:33:01;27.20;23.80;15.00
14880;PMS7003;7533;51.278;12.588;2023-05-15T07:38:05;27.50;24.75;15.75
14880;PMS7003;7533;51.278;12.588;2023-05-15T07:43:08;28.75;25.25;16.00
14880;PMS7003;7533;51.278;12.588;2023-05-15T07:48:16;24.80;21.20;15.60
14880;PMS7003;7533;51.278;12.588;2023-05-15T07:53:20;24.75;23.75;16.00
14880;PMS7003;7533;51.278;12.588;2023-05-15T07:58:24;22.75;22.00;14.75
14880;PMS7003;7533;51.278;12.588;2023-05-15T08:03:29;27.00;24.00;16.00
14880;PMS7003;7533;51.278;12.588;2023-05-15T08:08:32;25.20;24.60;15.80
14880;PMS7003;7533;51.278;12.588;2023-05-15T08:13:35;29.80;27.20;17.20
14880;PMS7003;7533;51.278;12.588;2023-05-15T08:18:39;26.00;23.75;16.50
14880;PMS7003;7533;51.278;12.588;2023-05-15T08:23:42;23.00;21.00;14.00
14880;PMS7003;7533;51.278;12.588;2023-05-15T08:28:45;33.40;27.60;17.60
14880;PMS7003;7533;51.278;12.588;2023-05-15T08:33:49;22.75;20.50;13.75
14880;PMS7003;7533;51.278;12.588;2023-05-15T08:38:52;26.25;24.25;16.00
14880;PMS7003;7533;51.278;12.588;2023-05-15T08:43:54;17.50;16.50;11.50
14880;PMS7003;7533;51.278;12.588;2023-05-15T08:49:01;25.60;23.80;14.60
14880;PMS7003;7533;51.278;12.588;2023-05-15T08:54:12;24.50;21.25;15.00
14880;PMS7003;7533;51.278;12.588;2023-05-15T08:59:16;18.25;17.50;11.75
14880;PMS7003;7533;51.278;12.588;2023-05-15T09:04:21;18.00;16.50;11.75
14880;PMS7003;7533;51.278;12.588;2023-05-15T09:09:24;18.00;17.75;11.50
14880;PMS7003;7533;51.278;12.588;2023-05-15T09:14:29;15.50;15.25;11.75
14880;PMS7003;7533;51.278;12.588;2023-05-15T09:19:34;15.00;15.00;11.50
14880;PMS7003;7533;51.278;12.588;2023-05-15T09:24:37;15.00;13.50;10.50
14880;PMS7003;7533;51.278;12.588;2023-05-15T09:29:40;13.75;12.75;9.00
14880;PMS7003;7533;51.278;12.588;2023-05-15T09:34:44;17.50;14.50;10.00
14880;PMS7003;7533;51.278;12.588;2023-05-15T09:39:47;13.00;13.00;9.00
14880;PMS7003;7533;51.278;12.588;2023-05-15T09:44:50;11.50;11.00;8.00
14880;PMS7003;7533;51.278;12.588;2023-05-15T09:49:55;13.75;12.00;8.75
14880;PMS7003;7533;51.278;12.588;2023-05-15T09:54:58;14.50;12.75;9.00
14880;PMS7003;7533;51.278;12.588;2023-05-15T10:00:01;13.50;12.75;10.00
14880;PMS7003;7533;51.278;12.588;2023-05-15T10:05:13;12.50;12.50;9.25
14880;PMS7003;7533;51.278;12.588;2023-05-15T10:10:17;10.25;9.00;7.50
14880;PMS7003;7533;51.278;12.588;2023-05-15T10:15:20;12.50;11.25;8.00
14880;PMS7003;7533;51.278;12.588;2023-05-15T10:20:25;11.00;10.00;8.00
14880;PMS7003;7533;51.278;12.588;2023-05-15T10:25:31;12.25;12.25;8.50
14880;PMS7003;7533;51.278;12.588;2023-05-15T10:30:39;11.50;11.00;8.00
14880;PMS7003;7533;51.278;12.588;2023-05-15T10:35:45;11.25;9.50;7.50
14880;PMS7003;7533;51.278;12.588;2023-05-15T10:40:49;12.50;12.50;8.00
14880;PMS7003;7533;51.278;12.588;2023-05-15T10:46:03;11.50;11.50;9.25
14880;PMS7003;7533;51.278;12.588;2023-05-15T10:51:13;13.00;13.00;9.25
14880;PMS7003;7533;51.278;12.588;2023-05-15T10:56:17;13.25;13.25;9.00
14880;PMS7003;7533;51.278;12.588;2023-05-15T11:01:23;12.75;12.75;9.25
14880;PMS7003;7533;51.278;12.588;2023-05-15T11:06:39;13.75;13.75;9.25
14880;PMS7003;7533;51.278;12.588;2023-05-15T11:11:53;12.25;12.00;9.00
14880;PMS7003;7533;51.278;12.588;2023-05-15T11:16:59;12.50;12.50;9.75
14880;PMS7003;7533;51.278;12.588;2023-05-15T11:22:16;13.00;12.50;9.00
14880;PMS7003;7533;51.278;12.588;2023-05-15T11:27:21;14.00;14.00;11.00
14880;PMS7003;7533;51.278;12.588;2023-05-15T11:32:42;12.25;11.25;8.50
14880;PMS7003;7533;51.278;12.588;2023-05-15T11:37:51;11.00;10.50;9.00
14880;PMS7003;7533;51.278;12.588;2023-05-15T11:42:59;13.50;12.00;9.00
14880;PMS7003;7533;51.278;12.588;2023-05-15T11:48:06;13.75;12.00;8.00
14880;PMS7003;7533;51.278;12.588;2023-05-15T11:53:15;13.25;13.00;10.00
14880;PMS7003;7533;51.278;12.588;2023-05-15T11:58:19;13.00;12.25;8.50
14880;PMS7003;7533;51.278;12.588;2023-05-15T12:03:24;12.75;12.75;10.00
14880;PMS7003;7533;51.278;12.588;2023-05-15T12:08:31;13.50;12.00;9.75
14880;PMS7003;7533;51.278;12.588;2023-05-15T12:13:34;11.50;10.25;7.00
14880;PMS7003;7533;51.278;12.588;2023-05-15T12:18:37;11.75;11.75;8.25
14880;PMS7003;7533;51.278;12.588;2023-05-15T12:23:42;11.25;10.00;7.50
14880;PMS7003;7533;51.278;12.588;2023-05-15T12:29:07;13.00;11.25;9.00
14880;PMS7003;7533;51.278;12.588;2023-05-15T12:34:10;11.00;10.00;8.50
14880;PMS7003;7533;51.278;12.588;2023-05-15T12:39:15;12.75;10.75;8.50
14880;PMS7003;7533;51.278;12.588;2023-05-15T12:44:18;13.00;12.75;9.75
14880;PMS7003;7533;51.278;12.588;2023-05-15T12:49:22;15.75;13.75;10.25
14880;PMS7003;7533;51.278;12.588;2023-05-15T12:54:26;17.25;16.50;11.75
14880;PMS7003;7533;51.278;12.588;2023-05-15T12:59:29;13.75;13.75;10.00
14880;PMS7003;7533;51.278;12.588;2023-05-15T13:04:33;15.50;14.00;9.75
14880;PMS7003;7533;51.278;12.588;2023-05-15T13:09:37;173.40;141.00;69.00
14880;PMS7003;7533;51.278;12.588;2023-05-15T13:14:41;88.20;71.00;38.40
14880;PMS7003;7533;51.278;12.588;2023-05-15T13:19:44;134.80;113.40;58.80
14880;PMS7003;7533;51.278;12.588;2023-05-15T13:24:49;212.40;174.40;82.40
14880;PMS7003;7533;51.278;12.588;2023-05-15T13:29:53;289.67;233.67;105.67
14880;PMS7003;7533;51.278;12.588;2023-05-15T13:34:56;236.80;188.20;91.40
14880;PMS7003;7533;51.278;12.588;2023-05-15T13:40:00;206.80;169.00;78.00
14880;PMS7003;7533;51.278;12.588;2023-05-15T13:45:07;222.00;172.80;83.60
14880;PMS7003;7533;51.278;12.588;2023-05-15T13:50:11;229.80;184.00;85.00
14880;PMS7003;7533;51.278;12.588;2023-05-15T13:55:17;197.60;168.80;81.60
14880;PMS7003;7533;51.278;12.588;2023-05-15T14:00:23;187.20;150.80;70.00
14880;PMS7003;7533;51.278;12.588;2023-05-15T14:05:26;187.40;147.20;65.60
14880;PMS7003;7533;51.278;12.588;2023-05-15T14:10:31;153.60;123.60;61.40
14880;PMS7003;7533;51.278;12.588;2023-05-15T14:15:36;148.80;124.80;59.80
14880;PMS7003;7533;51.278;12.588;2023-05-15T14:20:39;156.20;123.40;60.60
14880;PMS7003;7533;51.278;12.588;2023-05-15T14:25:43;155.00;125.00;61.40
14880;PMS7003;7533;51.278;12.588;2023-05-15T14:30:46;157.80;136.80;61.60
14880;PMS7003;7533;51.278;12.588;2023-05-15T14:35:49;159.80;128.60;60.20
14880;PMS7003;7533;51.278;12.588;2023-05-15T14:40:54;147.20;119.20;55.60
14880;PMS7003;7533;51.278;12.588;2023-05-15T14:45:57;153.60;130.20;59.00
14880;PMS7003;7533;51.278;12.588;2023-05-15T14:51:00;147.80;124.60;59.60
14880;PMS7003;7533;51.278;12.588;2023-05-15T14:56:05;135.20;109.00;52.60
14880;PMS7003;7533;51.278;12.588;2023-05-15T15:01:07;144.60;114.80;58.00
14880;PMS7003;7533;51.278;12.588;2023-05-15T15:06:11;130.20;105.80;53.20
14880;PMS7003;7533;51.278;12.588;2023-05-15T15:11:15;131.80;108.40;53.00
14880;PMS7003;7533;51.278;12.588;2023-05-15T15:16:18;131.60;104.60;50.60
14880;PMS7003;7533;51.278;12.588;2023-05-15T15:21:21;134.40;112.80;53.20
14880;PMS7003;7533;51.278;12.588;2023-05-15T15:26:26;122.40;100.80;46.60
14880;PMS7003;7533;51.278;12.588;2023-05-15T15:31:29;127.00;105.60;47.40
14880;PMS7003;7533;51.278;12.588;2023-05-15T15:36:33;118.20;101.20;48.60
14880;PMS7003;7533;51.278;12.588;2023-05-15T15:41:39;119.20;97.00;45.80
14880;PMS7003;7533;51.278;12.588;2023-05-15T15:46:42;109.60;89.80;45.40
14880;PMS7003;7533;51.278;12.588;2023-05-15T15:51:45;104.20;82.40;41.20
14880;PMS7003;7533;51.278;12.588;2023-05-15T15:56:49;108.00;88.00;42.00
14880;PMS7003;7533;51.278;12.588;2023-05-15T16:01:52;103.40;86.20;41.40
14880;PMS7003;7533;51.278;12.588;2023-05-15T16:06:56;97.00;80.40;41.60
14880;PMS7003;7533;51.278;12.588;2023-05-15T16:12:00;105.20;81.40;38.40
14880;PMS7003;7533;51.278;12.588;2023-05-15T16:17:03;97.60;78.00;37.40
14880;PMS7003;7533;51.278;12.588;2023-05-15T16:22:06;97.60;78.40;38.20
14880;PMS7003;7533;51.278;12.588;2023-05-15T16:27:11;89.80;75.20;35.20
14880;PMS7003;7533;51.278;12.588;2023-05-15T16:32:13;65.40;49.60;28.20
14880;PMS7003;7533;51.278;12.588;2023-05-15T16:37:16;62.00;47.60;27.60
14880;PMS7003;7533;51.278;12.588;2023-05-15T16:42:21;59.00;44.20;25.40
14880;PMS7003;7533;51.278;12.588;2023-05-15T16:47:24;55.80;43.60;25.00
14880;PMS7003;7533;51.278;12.588;2023-05-15T16:52:27;53.20;40.60;24.80
14880;PMS7003;7533;51.278;12.588;2023-05-15T16:57:31;46.40;35.40;22.00
14880;PMS7003;7533;51.278;12.588;2023-05-15T17:02:34;46.60;36.60;22.00
14880;PMS7003;7533;51.278;12.588;2023-05-15T17:07:37;41.00;33.20;20.00
14880;PMS7003;7533;51.278;12.588;2023-05-15T17:12:42;41.20;31.00;19.00
14880;PMS7003;7533;51.278;12.588;2023-05-15T17:17:45;34.00;29.20;18.20
14880;PMS7003;7533;51.278;12.588;2023-05-15T17:22:48;35.40;29.40;18.20
14880;PMS7003;7533;51.278;12.588;2023-05-15T17:27:52;29.00;27.60;16.20
14880;PMS7003;7533;51.278;12.588;2023-05-15T17:32:55;30.00;26.60;16.40
14880;PMS7003;7533;51.278;12.588;2023-05-15T17:37:58;31.40;28.00;16.40
14880;PMS7003;7533;51.278;12.588;2023-05-15T17:43:02;30.80;26.20;16.60
14880;PMS7003;7533;51.278;12.588;2023-05-15T17:48:05;27.80;25.20;15.00
14880;PMS7003;7533;51.278;12.588;2023-05-15T17:53:08;26.60;22.40;14.60
14880;PMS7003;7533;51.278;12.588;2023-05-15T17:58:12;30.20;23.20;14.80
14880;PMS7003;7533;51.278;12.588;2023-05-15T18:03:15;32.80;27.00;16.40
14880;PMS7003;7533;51.278;12.588;2023-05-15T18:08:18;30.20;25.80;14.00
14880;PMS7003;7533;51.278;12.588;2023-05-15T18:13:22;26.40;23.80;13.60
14880;PMS7003;7533;51.278;12.588;2023-05-15T18:18:25;25.40;24.00;14.60
14880;PMS7003;7533;51.278;12.588;2023-05-15T18:23:28;28.00;26.20;16.20
14880;PMS7003;7533;51.278;12.588;2023-05-15T18:28:32;20.60;20.40;12.60
14880;PMS7003;7533;51.278;12.588;2023-05-15T18:33:35;28.60;23.40;13.00
14880;PMS7003;7533;51.278;12.588;2023-05-15T18:38:39;26.60;23.80;14.00
14880;PMS7003;7533;51.278;12.588;2023-05-15T18:43:44;28.60;22.60;14.80
14880;PMS7003;7533;51.278;12.588;2023-05-15T18:48:47;25.20;23.40;13.40
14880;PMS7003;7533;51.278;12.588;2023-05-15T18:53:50;29.40;24.40;14.00
14880;PMS7003;7533;51.278;12.588;2023-05-15T18:58:54;25.25;23.75;14.50
14880;PMS7003;7533;51.278;12.588;2023-05-15T19:03:57;24.80;23.60;12.80
14880;PMS7003;7533;51.278;12.588;2023-05-15T19:09:00;29.20;23.60;14.00
14880;PMS7003;7533;51.278;12.588;2023-05-15T19:14:05;25.20;22.00;12.60
14880;PMS7003;7533;51.278;12.588;2023-05-15T19:19:08;22.20;20.60;13.80
14880;PMS7003;7533;51.278;12.588;2023-05-15T19:24:11;22.60;20.20;12.60
14880;PMS7003;7533;51.278;12.588;2023-05-15T19:29:15;26.20;22.00;11.00
14880;PMS7003;7533;51.278;12.588;2023-05-15T19:34:18;23.00;22.20;13.20
14880;PMS7003;7533;51.278;12.588;2023-05-15T19:39:21;19.80;19.40;12.80
14880;PMS7003;7533;51.278;12.588;2023-05-15T19:44:25;30.20;24.00;12.80
14880;PMS7003;7533;51.278;12.588;2023-05-15T19:49:28;19.75;18.75;12.25
14880;PMS7003;7533;51.278;12.588;2023-05-15T19:54:31;25.25;19.00;11.50
14880;PMS7003;7533;51.278;12.588;2023-05-15T19:59:35;19.75;18.50;10.50
14880;PMS7003;7533;51.278;12.588;2023-05-15T20:04:38;23.25;20.00;11.00
14880;PMS7003;7533;51.278;12.588;2023-05-15T20:09:41;23.00;18.75;12.00
14880;PMS7003;7533;51.278;12.588;2023-05-15T20:14:48;22.20;20.00;12.20
14880;PMS7003;7533;51.278;12.588;2023-05-15T20:19:52;20.20;18.40;11.00
14880;PMS7003;7533;51.278;12.588;2023-05-15T20:24:55;20.50;18.00;10.50
14880;PMS7003;7533;51.278;12.588;2023-05-15T20:29:59;20.80;17.80;10.20
14880;PMS7003;7533;51.278;12.588;2023-05-15T20:35:04;23.00;20.80;12.60
14880;PMS7003;7533;51.278;12.588;2023-05-15T20:40:08;20.75;18.00;10.25
14880;PMS7003;7533;51.278;12.588;2023-05-15T20:45:14;21.00;17.20;9.40
14880;PMS7003;7533;51.278;12.588;2023-05-15T20:50:17;19.50;18.75;10.50
14880;PMS7003;7533;51.278;12.588;2023-05-15T20:55:21;20.00;19.00;11.00
14880;PMS7003;7533;51.278;12.588;2023-05-15T21:00:25;21.00;18.00;11.00
14880;PMS7003;7533;51.278;12.588;2023-05-15T21:05:28;18.25;17.50;9.50
14880;PMS7003;7533;51.278;12.588;2023-05-15T21:10:31;15.25;15.25;10.00
14880;PMS7003;7533;51.278;12.588;2023-05-15T21:15:35;18.25;17.25;10.00
14880;PMS7003;7533;51.278;12.588;2023-05-15T21:20:38;22.60;17.60;10.00
14880;PMS7003;7533;51.278;12.588;2023-05-15T21:25:41;17.25;15.00;8.75
14880;PMS7003;7533;51.278;12.588;2023-05-15T21:30:45;17.25;14.75;10.00
14880;PMS7003;7533;51.278;12.588;2023-05-15T21:35:48;17.40;15.80;10.20
14880;PMS7003;7533;51.278;12.588;2023-05-15T21:40:52;19.00;18.00;10.50
14880;PMS7003;7533;51.278;12.588;2023-05-15T21:45:56;19.00;15.60;9.00
14880;PMS7003;7533;51.278;12.588;2023-05-15T21:50:59;17.00;15.25;9.00
14880;PMS7003;7533;51.278;12.588;2023-05-15T21:56:02;18.00;17.00;10.00
14880;PMS7003;7533;51.278;12.588;2023-05-15T22:01:06;20.00;16.50;9.00
14880;PMS7003;7533;51.278;12.588;2023-05-15T22:06:09;17.00;14.25;9.00
14880;PMS7003;7533;51.278;12.588;2023-05-15T22:11:12;16.50;15.25;9.25
14880;PMS7003;7533;51.278;12.588;2023-05-15T22:16:17;20.75;17.75;9.25
14880;PMS7003;7533;51.278;12.588;2023-05-15T22:21:19;12.50;12.50;9.00
14880;PMS7003;7533;51.278;12.588;2023-05-15T22:26:22;17.50;16.25;8.25
14880;PMS7003;7533;51.278;12.588;2023-05-15T22:31:27;16.00;14.00;8.75
14880;PMS7003;7533;51.278;12.588;2023-05-15T22:36:29;15.25;14.25;9.00
14880;PMS7003;7533;51.278;12.588;2023-05-15T22:41:35;15.25;15.00;7.75
14880;PMS7003;7533;51.278;12.588;2023-05-15T22:46:39;14.00;13.25;7.75
14880;PMS7003;7533;51.278;12.588;2023-05-15T22:51:42;17.00;14.00;7.00
14880;PMS7003;7533;51.278;12.588;2023-05-15T22:56:45;16.50;14.00;9.00
14880;PMS7003;7533;51.278;12.588;2023-05-15T23:01:49;14.25;12.50;8.75
14880;PMS7003;7533;51.278;12.588;2023-05-15T23:06:52;17.75;13.25;8.00
14880;PMS7003;7533;51.278;12.588;2023-05-15T23:11:56;17.00;14.50;7.50
14880;PMS7003;7533;51.278;12.588;2023-05-15T23:17:00;17.00;15.00;8.00
14880;PMS7003;7533;51.278;12.588;2023-05-15T23:22:03;17.00;15.00;8.50
14880;PMS7003;7533;51.278;12.588;2023-05-15T23:27:06;13.25;12.50;7.75
14880;PMS7003;7533;51.278;12.588;2023-05-15T23:32:10;12.00;11.00;6.00
14880;PMS7003;7533;51.278;12.588;2023-05-15T23:37:13;13.50;13.00;7.50
14880;PMS7003;7533;51.278;12.588;2023-05-15T23:42:17;15.75;14.00;8.75
14880;PMS7003;7533;51.278;12.588;2023-05-15T23:47:21;12.00;11.00;7.00
14880;PMS7003;7533;51.278;12.588;2023-05-15T23:52:24;16.75;12.50;7.75
14880;PMS7003;7533;51.278;12.588;2023-05-15T23:57:27;20.00;15.25;8.00
